Time;durP1;ratioP1;P1;durP2;ratioP2;P2;SDS_P1;SDS_P2;PMS_P1;PMS_P2;Temp;Humidity;BMP_temperature;BMP_pressure;BME280_temperature;BME280_humidity;BME280_pressure;Samples;Min_cycle;Max_cycle;Signal;HPM_P1;HPM_P2
2022/07/06 00:04:02;;;;;;;0.95;0.30;;;14.60;99.90;;;;;;5093845;28;20104;-89
2022/07/06 00:06:42;;;;;;;0.75;0.30;;;14.60;99.90;;;;;;5031323;28;20402;-88
2022/07/06 00:09:52;;;;;;;2.17;0.20;;;14.20;99.90;;;;;;4997757;28;20054;-90
2022/07/06 00:12:25;;;;;;;0.20;0.20;;;14.60;99.90;;;;;;4994712;28;20061;-88
2022/07/06 00:18:14;;;;;;;0.55;0.20;;;14.50;99.90;;;;;;5009756;28;20108;-91
2022/07/06 00:21:11;;;;;;;0.88;0.10;;;14.50;99.90;;;;;;5031278;28;20191;-90
2022/07/06 00:23:54;;;;;;;0.65;0.22;;;14.50;99.90;;;;;;5013096;28;20085;-90
2022/07/06 00:26:57;;;;;;;;;;;;;;;;;;;;;
2022/07/06 00:37:03;;;;;;;0.32;0.20;;;14.40;99.90;;;;;;4986490;28;20103;-90
2022/07/06 00:40:06;;;;;;;0.45;0.10;;;14.40;99.90;;;;;;5014205;28;20052;-89
2022/07/06 00:42:57;;;;;;;1.13;0.17;;;14.40;99.90;;;;;;5032080;28;20102;-91
2022/07/06 00:53:35;;;;;;;0.20;0.10;;;14.30;99.90;;;;;;5030904;28;20047;-89
2022/07/06 00:56:35;;;;;;;0.30;0.20;;;14.30;99.90;;;;;;5030975;28;20632;-88
2022/07/06 00:59:10;;;;;;;0.38;0.20;;;15.10;99.90;;;;;;5080354;22;20094;-89
2022/07/06 01:01:48;;;;;;;2.78;0.30;;;14.30;99.90;;;;;;5052959;28;20120;-90
2022/07/06 01:04:33;;;;;;;1.60;0.20;;;14.30;99.90;;;;;;5053074;28;20062;-87
2022/07/06 01:07:46;;;;;;;1.27;0.20;;;14.40;99.90;;;;;;5038834;28;20044;-88
2022/07/06 01:10:45;;;;;;;;;;;;;;;;;;;;;
2022/07/06 01:13:38;;;;;;;0.43;0.20;;;14.30;99.90;;;;;;5069956;28;20041;-89
2022/07/06 01:20:04;;;;;;;0.50;0.20;;;14.30;99.90;;;;;;5070314;28;20086;-86
2022/07/06 01:23:09;;;;;;;;;;;15.00;99.90;;;;;;5030481;28;20049;-91
2022/07/06 01:26:04;;;;;;;1.40;0.17;;;14.30;99.90;;;;;;5012774;28;20259;-88
2022/07/06 01:28:45;;;;;;;;;;;14.30;99.90;;;;;;5012480;28;20096;-89
2022/07/06 01:35:36;;;;;;;1.08;0.10;;;14.20;99.90;;;;;;5029936;28;20056;-88
2022/07/06 01:38:48;;;;;;;0.65;0.13;;;14.60;99.90;;;;;;5029354;28;20128;-91
2022/07/06 01:42:13;;;;;;;0.10;0.10;;;14.00;99.90;;;;;;4959704;28;20090;-89
2022/07/06 01:45:05;;;;;;;1.88;0.22;;;14.20;99.90;;;;;;5139437;22;20056;-88
2022/07/06 01:48:00;;;;;;;1.13;0.10;;;14.10;99.90;;;;;;5053453;28;20079;-90
2022/07/06 01:54:09;;;;;;;1.00;0.20;;;14.20;99.90;;;;;;4648553;26;20073;-91
2022/07/06 01:57:40;;;;;;;0.60;0.20;;;14.30;99.90;;;;;;5014501;28;20157;-91
2022/07/06 02:04:58;;;;;;;;;;;;;;;;;;;;;
2022/07/06 02:08:02;;;;;;;0.50;0.20;;;14.20;99.90;;;;;;4834776;29;20468;-91
2022/07/06 02:11:42;;;;;;;1.23;0.15;;;14.10;99.90;;;;;;4849428;29;20049;-91
2022/07/06 02:14:30;;;;;;;1.63;0.20;;;14.10;99.90;;;;;;4846000;29;20085;-90
2022/07/06 02:21:07;;;;;;;1.08;0.20;;;14.10;99.90;;;;;;4806196;29;20054;-88
2022/07/06 02:24:06;;;;;;;1.88;0.20;;;14.00;99.90;;;;;;4790056;29;20111;-90
2022/07/06 02:27:01;;;;;;;0.25;0.10;;;13.90;99.90;;;;;;4769753;30;20131;-91
2022/07/06 02:29:47;;;;;;;1.95;0.20;;;14.60;99.90;;;;;;4769342;30;20079;-90
2022/07/06 02:38:58;;;;;;;1.02;0.30;;;13.60;99.90;;;;;;4769762;30;20059;-88
2022/07/06 02:41:48;;;;;;;3.13;0.15;;;13.50;99.90;;;;;;4778005;30;20138;-91
2022/07/06 02:44:43;;;;;;;1.17;0.35;;;13.50;99.90;;;;;;4795355;29;20095;-91
2022/07/06 02:47:41;;;;;;;1.85;0.25;;;13.00;99.90;;;;;;4790859;29;20420;-92
2022/07/06 02:53:31;;;;;;;1.02;0.20;;;13.40;99.90;;;;;;4920877;22;20444;-89
2022/07/06 02:56:29;;;;;;;0.40;0.20;;;13.40;99.90;;;;;;5073325;28;20045;-89
2022/07/06 02:59:24;;;;;;;0.75;0.15;;;12.60;99.90;;;;;;5082621;22;20048;-89
2022/07/06 03:02:27;;;;;;;0.30;0.15;;;12.90;99.90;;;;;;5074700;28;20497;-89
2022/07/06 03:08:34;;;;;;;0.20;0.10;;;13.10;99.90;;;;;;5091942;28;20044;-91
2022/07/06 03:11:15;;;;;;;0.30;0.20;;;13.00;99.90;;;;;;5077475;28;20048;-88
2022/07/06 03:13:56;;;;;;;2.35;0.30;;;13.00;99.90;;;;;;5059272;28;20135;-89
2022/07/06 03:16:45;;;;;;;1.20;0.20;;;12.90;99.90;;;;;;5076536;28;20474;-91
2022/07/06 03:19:52;;;;;;;0.35;0.10;;;13.10;99.90;;;;;;5075499;28;20078;-88
2022/07/06 03:22:40;;;;;;;0.45;0.10;;;12.70;99.90;;;;;;5094235;28;20127;-88
2022/07/06 03:25:38;;;;;;;;;;;;;;;;;;;;;
2022/07/06 03:31:39;;;;;;;0.40;0.17;;;12.70;99.90;;;;;;5010881;28;20045;-88
2022/07/06 03:37:34;;;;;;;0.98;0.20;;;12.70;99.90;;;;;;5096673;22;20121;-90
2022/07/06 03:40:36;;;;;;;1.10;0.20;;;12.60;99.90;;;;;;5071256;28;20078;-89
2022/07/06 03:44:29;;;;;;;;;;;;;;;;;;;;;
2022/07/06 03:47:58;;;;;;;0.45;0.10;;;12.50;99.90;;;;;;5033485;28;20087;-87
2022/07/06 03:50:44;;;;;;;;;;;;;;;;;;;;;
2022/07/06 03:53:32;;;;;;;0.43;0.10;;;12.50;99.90;;;;;;5031899;28;20492;-90
2022/07/06 03:56:45;;;;;;;;;;;;;;;;;;;;;
2022/07/06 03:59:50;;;;;;;0.65;0.20;;;12.40;99.90;;;;;;5074835;28;20044;-89
2022/07/06 04:02:44;;;;;;;0.68;0.20;;;12.30;99.90;;;;;;4991329;28;20090;-87
2022/07/06 04:06:18;;;;;;;0.82;0.20;;;12.50;99.90;;;;;;4975891;28;20194;-88
2022/07/06 04:08:43;;;;;;;0.20;0.10;;;11.60;99.90;;;;;;4982725;28;20125;-89
2022/07/06 04:14:44;;;;;;;1.13;0.20;;;12.00;99.90;;;;;;4995629;23;20125;-89
2022/07/06 04:22:30;;;;;;;;;;;;;;;;;;;;;
2022/07/06 04:25:28;;;;;;;0.50;0.20;;;12.50;99.90;;;;;;5010002;28;20056;-89
2022/07/06 04:28:52;;;;;;;2.95;0.20;;;12.50;99.90;;;;;;5050556;22;20520;-88
2022/07/06 04:31:43;;;;;;;1.77;0.10;;;12.60;99.90;;;;;;5051255;28;20143;-87
2022/07/06 04:37:46;;;;;;;;;;;;;;;;;;;;;
2022/07/06 04:40:34;;;;;;;0.38;0.30;;;12.60;99.90;;;;;;4973110;28;20056;-87
2022/07/06 04:43:17;;;;;;;1.08;0.20;;;12.70;99.90;;;;;;5017974;28;20045;-86
2022/07/06 04:53:27;;;;;;;3.60;0.10;;;12.80;99.90;;;;;;5052845;28;20392;-88
2022/07/06 04:56:17;;;;;;;1.35;0.20;;;12.90;99.90;;;;;;5051940;28;20060;-87
2022/07/06 04:58:58;;;;;;;0.10;0.10;;;12.90;99.90;;;;;;5080764;23;20044;-86
2022/07/06 05:01:31;;;;;;;0.52;0.10;;;13.00;99.90;;;;;;5091606;28;20059;-87
2022/07/06 05:04:08;;;;;;;0.75;0.15;;;13.30;99.90;;;;;;5091661;28;20071;-85
2022/07/06 05:06:58;;;;;;;;;;;;;;;;;;;;;
2022/07/06 05:09:57;;;;;;;;;;;;;;;;;;;;;
2022/07/06 05:13:44;;;;;;;0.30;0.03;;;13.00;99.90;;;;;;5032099;23;20106;-88
2022/07/06 05:20:48;;;;;;;;;;;;;;;;;;;;;
2022/07/06 05:23:52;;;;;;;0.55;0.10;;;14.30;99.90;;;;;;5031962;28;20128;-88
2022/07/06 05:37:18;;;;;;;;;;;;;;;;;;;;;
2022/07/06 05:41:20;;;;;;;0.05;0.05;;;14.20;99.90;;;;;;4986057;28;20053;-87
2022/07/06 05:50:19;;;;;;;1.10;0.10;;;14.90;99.90;;;;;;5013883;28;20395;-88
2022/07/06 05:57:22;;;;;;;1.65;0.20;;;15.00;99.90;;;;;;4879554;29;20148;-90
2022/07/06 06:03:59;;;;;;;0.90;0.10;;;15.20;99.90;;;;;;4860872;29;20132;-88
2022/07/06 06:07:26;;;;;;;1.20;0.10;;;15.50;99.90;;;;;;4794196;29;20420;-88
2022/07/06 06:11:24;;;;;;;;;;;;;;;;;;;;;
2022/07/06 06:21:45;;;;;;;1.15;0.52;;;15.40;99.90;;;;;;5118649;23;20089;-86
2022/07/06 06:24:11;;;;;;;0.20;0.17;;;15.50;99.90;;;;;;5015757;28;20054;-88
2022/07/06 06:26:37;;;;;;;1.52;0.20;;;15.50;99.90;;;;;;5003363;28;20041;-87
2022/07/06 06:29:03;;;;;;;1.27;0.10;;;15.50;99.90;;;;;;5017594;28;20132;-87
2022/07/06 06:31:29;;;;;;;0.65;0.10;;;15.60;99.90;;;;;;5010485;28;20045;-89
2022/07/06 06:33:57;;;;;;;1.55;0.20;;;15.60;99.90;;;;;;5018590;28;20038;-88
2022/07/06 06:36:23;;;;;;;1.08;0.10;;;15.80;99.90;;;;;;4998442;28;20199;-89
2022/07/06 06:38:51;;;;;;;1.25;0.28;;;15.70;99.90;;;;;;4998259;28;20049;-94
2022/07/06 06:41:20;;;;;;;0.65;0.10;;;15.90;99.90;;;;;;4998085;28;20561;-89
2022/07/06 06:43:46;;;;;;;1.67;0.20;;;15.80;99.90;;;;;;4997714;28;20064;-87
2022/07/06 06:46:12;;;;;;;0.55;0.10;;;15.80;99.90;;;;;;5015794;28;20041;-88
2022/07/06 06:48:37;;;;;;;2.33;0.20;;;15.80;99.90;;;;;;5015668;28;20133;-86
2022/07/06 06:51:04;;;;;;;0.68;0.20;;;15.80;99.90;;;;;;5015509;28;20042;-89
2022/07/06 06:53:30;;;;;;;1.23;0.38;;;15.90;99.90;;;;;;5015076;28;20437;-89
2022/07/06 06:55:55;;;;;;;0.85;0.20;;;16.00;99.90;;;;;;4982217;28;20084;-85
2022/07/06 06:58:21;;;;;;;1.27;0.30;;;16.20;99.90;;;;;;4997931;28;20046;-86
2022/07/06 07:00:47;;;;;;;2.28;0.10;;;16.50;99.90;;;;;;4997786;28;20057;-90
2022/07/06 07:03:13;;;;;;;3.22;0.20;;;16.80;99.90;;;;;;4997490;28;20513;-86
2022/07/06 07:05:39;;;;;;;1.67;0.30;;;17.10;99.90;;;;;;4997560;28;20046;-89
2022/07/06 07:08:05;;;;;;;1.73;0.20;;;17.40;99.90;;;;;;4997883;28;20057;-87
2022/07/06 07:10:33;;;;;;;0.55;0.20;;;17.50;99.90;;;;;;5014744;28;20100;-88
2022/07/06 07:12:59;;;;;;;1.85;0.20;;;17.60;99.90;;;;;;5014705;28;20038;-90
2022/07/06 07:15:25;;;;;;;0.98;0.10;;;17.60;99.90;;;;;;4998246;28;20085;-85
2022/07/06 07:17:51;;;;;;;1.98;0.25;;;17.30;99.90;;;;;;5039707;22;20056;-88
2022/07/06 07:20:42;;;;;;;1.95;0.20;;;17.30;99.90;;;;;;5033395;28;20095;-92
2022/07/06 07:25:54;;;;;;;;;;;17.50;99.90;;;;;;4975450;28;20062;-93
2022/07/06 07:35:34;;;;;;;3.45;0.10;;;18.00;99.90;;;;;;5176529;23;20056;-90
2022/07/06 07:38:08;;;;;;;2.78;0.20;;;17.90;99.90;;;;;;5046557;28;20455;-94
2022/07/06 07:40:35;;;;;;;2.33;0.37;;;17.70;99.90;;;;;;5031637;28;20067;-88
2022/07/06 07:43:04;;;;;;;0.65;0.10;;;18.00;99.90;;;;;;5035642;28;20049;-88
2022/07/06 07:45:39;;;;;;;3.30;0.20;;;18.00;99.90;;;;;;5027738;28;20057;-89
2022/07/06 07:48:05;;;;;;;2.38;0.10;;;18.10;99.90;;;;;;5046048;28;20084;-86
2022/07/06 07:50:31;;;;;;;0.20;0.00;;;18.20;99.90;;;;;;5033025;28;20111;-85
2022/07/06 07:52:57;;;;;;;0.55;0.20;;;18.30;99.90;;;;;;5047949;28;20489;-85
2022/07/06 07:55:23;;;;;;;0.50;0.20;;;18.40;99.90;;;;;;5037802;28;20041;-90
2022/07/06 07:57:48;;;;;;;0.52;0.20;;;18.40;99.90;;;;;;5037303;28;20112;-90
2022/07/06 08:00:14;;;;;;;2.22;0.20;;;18.50;99.90;;;;;;5034758;28;20053;-88
2022/07/06 08:02:40;;;;;;;0.63;0.10;;;18.70;99.90;;;;;;5019259;28;20521;-91
2022/07/06 08:05:06;;;;;;;3.25;0.10;;;18.80;99.90;;;;;;5037981;28;20087;-88
2022/07/06 08:07:35;;;;;;;0.28;0.10;;;18.90;99.90;;;;;;5034570;28;20532;-90
2022/07/06 08:10:01;;;;;;;0.77;0.10;;;18.90;99.90;;;;;;5019389;28;20445;-94
2022/07/06 08:12:27;;;;;;;1.65;0.10;;;19.00;99.90;;;;;;5037117;28;20045;-92
2022/07/06 08:14:52;;;;;;;1.05;0.10;;;19.10;99.90;;;;;;5037602;28;20088;-93
2022/07/06 08:17:18;;;;;;;1.45;0.10;;;19.20;99.90;;;;;;5021292;28;20452;-91
2022/07/06 08:19:44;;;;;;;1.90;0.20;;;19.10;99.90;;;;;;5038613;28;20048;-90
2022/07/06 08:22:09;;;;;;;0.70;0.10;;;19.10;99.90;;;;;;5020439;28;20497;-89
2022/07/06 08:24:35;;;;;;;2.30;0.10;;;19.10;99.90;;;;;;5019817;28;20073;-91
2022/07/06 08:27:02;;;;;;;0.90;0.10;;;19.20;99.90;;;;;;5038510;28;20037;-93
2022/07/06 08:29:28;;;;;;;1.08;0.13;;;19.30;99.90;;;;;;5018306;28;20052;-92
2022/07/06 08:31:54;;;;;;;0.50;0.10;;;19.40;99.90;;;;;;5036687;28;20410;-93
2022/07/06 08:34:20;;;;;;;1.45;0.20;;;19.50;99.90;;;;;;5018519;28;20051;-90
2022/07/06 08:36:46;;;;;;;1.20;0.15;;;19.50;99.90;;;;;;5017496;28;20053;-92
2022/07/06 08:39:12;;;;;;;2.95;0.20;;;19.30;99.90;;;;;;5017872;28;20109;-94
2022/07/06 08:41:41;;;;;;;1.73;0.20;;;19.40;99.90;;;;;;5034510;28;20053;-91
2022/07/06 08:44:08;;;;;;;4.25;0.25;;;19.40;99.90;;;;;;5017000;28;20052;-91
2022/07/06 08:46:40;;;;;;;3.92;0.43;;;19.70;99.90;;;;;;5018030;28;20049;-92
2022/07/06 08:49:07;;;;;;;0.52;0.10;;;19.70;99.00;;;;;;5018638;28;20048;-94
2022/07/06 08:51:35;;;;;;;3.38;0.20;;;19.80;99.60;;;;;;5002411;28;20049;-90
2022/07/06 08:54:27;;;;;;;1.05;0.10;;;19.90;98.50;;;;;;5018084;28;20049;-91
2022/07/06 08:57:02;;;;;;;2.75;0.20;;;20.00;99.50;;;;;;5014361;28;20061;-90
2022/07/06 09:09:36;;;;;;;1.38;0.52;;;20.10;99.90;;;;;;4987876;28;20042;-88
2022/07/06 09:12:03;;;;;;;1.63;0.13;;;20.20;99.20;;;;;;4975768;28;20495;-87
2022/07/06 09:14:38;;;;;;;0.90;0.10;;;20.30;99.70;;;;;;4973346;28;20046;-88
2022/07/06 09:17:07;;;;;;;1.35;0.10;;;20.40;99.90;;;;;;4991164;28;20046;-86
2022/07/06 09:19:36;;;;;;;1.50;0.20;;;20.50;99.90;;;;;;5008464;28;20068;-88
2022/07/06 09:22:02;;;;;;;2.00;0.20;;;20.70;98.90;;;;;;4965169;28;20066;-87
2022/07/06 09:24:42;;;;;;;1.38;0.17;;;20.50;99.30;;;;;;4956167;28;20066;-88
2022/07/06 09:27:17;;;;;;;0.60;0.15;;;20.60;99.80;;;;;;4956291;28;20082;-90
2022/07/06 09:29:45;;;;;;;0.35;0.10;;;20.60;99.30;;;;;;4973449;28;20396;-87
2022/07/06 09:32:32;;;;;;;1.10;0.10;;;20.50;99.20;;;;;;4956665;28;20061;-87
2022/07/06 09:35:02;;;;;;;1.80;0.20;;;20.50;99.70;;;;;;4973810;28;20053;-86
2022/07/06 09:37:30;;;;;;;1.90;0.15;;;20.30;99.70;;;;;;4970401;28;20121;-86
2022/07/06 09:39:56;;;;;;;2.28;0.10;;;20.50;99.60;;;;;;5008095;28;20398;-86
2022/07/06 09:42:26;;;;;;;1.10;0.10;;;20.50;99.80;;;;;;4974039;28;20046;-87
2022/07/06 09:44:52;;;;;;;0.75;0.08;;;20.60;99.90;;;;;;4975238;28;20059;-87
2022/07/06 09:47:21;;;;;;;0.43;0.15;;;20.60;99.90;;;;;;4975441;28;20129;-88
2022/07/06 09:50:10;;;;;;;1.38;0.10;;;20.50;99.90;;;;;;4975040;28;20046;-88
2022/07/06 09:52:37;;;;;;;1.10;0.10;;;20.80;99.70;;;;;;4967178;28;20479;-88
2022/07/06 09:55:17;;;;;;;0.20;0.10;;;20.80;99.90;;;;;;4975912;28;20379;-87
2022/07/06 09:57:53;;;;;;;0.93;0.20;;;20.70;99.90;;;;;;4963583;28;20061;-88
2022/07/06 10:00:20;;;;;;;2.35;0.20;;;20.40;99.90;;;;;;4968423;28;20093;-88
2022/07/06 10:02:47;;;;;;;2.28;0.10;;;20.60;99.90;;;;;;4974248;28;20558;-88
2022/07/06 10:05:16;;;;;;;5.07;0.30;;;20.40;99.90;;;;;;4955855;28;20053;-88
2022/07/06 10:07:46;;;;;;;2.20;0.17;;;20.70;99.90;;;;;;4977455;28;20577;-88
2022/07/06 10:10:12;;;;;;;0.60;0.20;;;20.70;99.20;;;;;;5011350;28;20049;-88
2022/07/06 10:12:42;;;;;;;1.60;0.20;;;20.70;99.80;;;;;;4998766;28;20046;-89
2022/07/06 10:15:08;;;;;;;6.30;0.60;;;20.80;99.10;;;;;;5031310;28;20041;-89
2022/07/06 10:17:38;;;;;;;1.48;0.10;;;20.80;99.00;;;;;;5015906;28;20050;-89
2022/07/06 10:20:05;;;;;;;1.15;0.20;;;21.00;99.90;;;;;;4999022;28;20046;-87
2022/07/06 10:22:31;;;;;;;0.95;0.10;;;21.30;99.00;;;;;;4996706;28;20054;-86
2022/07/06 10:24:59;;;;;;;0.25;0.03;;;21.30;99.60;;;;;;5013499;28;20041;-87
2022/07/06 10:27:25;;;;;;;2.22;0.20;;;21.40;99.60;;;;;;5013097;28;20099;-84
2022/07/06 10:29:53;;;;;;;0.25;0.10;;;21.70;99.90;;;;;;5015143;28;20037;-85
2022/07/06 10:32:20;;;;;;;1.52;0.20;;;22.00;99.00;;;;;;5015600;28;20042;-87
2022/07/06 10:34:47;;;;;;;3.35;0.20;;;22.00;98.70;;;;;;4998010;28;20096;-86
2022/07/06 10:37:24;;;;;;;0.98;0.00;;;22.20;99.20;;;;;;5015565;28;20097;-86
2022/07/06 10:42:42;;;;;;;1.38;0.20;;;22.40;97.80;;;;;;5015448;28;20589;-85
2022/07/06 10:45:10;;;;;;;0.40;0.15;;;22.50;98.00;;;;;;4997748;28;20054;-85
2022/07/06 10:47:36;;;;;;;0.75;0.20;;;22.70;97.90;;;;;;5015149;28;20453;-86
2022/07/06 10:50:03;;;;;;;0.63;0.08;;;23.00;96.80;;;;;;5030567;28;20050;-85
2022/07/06 10:52:51;;;;;;;1.15;0.10;;;23.20;95.60;;;;;;4997964;28;20092;-86
2022/07/06 10:55:34;;;;;;;1.15;0.20;;;23.20;97.10;;;;;;5015089;28;20437;-88
2022/07/06 10:58:01;;;;;;;1.38;0.10;;;23.40;95.50;;;;;;5015248;28;20049;-86
2022/07/06 11:00:51;;;;;;;0.50;0.10;;;23.60;95.60;;;;;;5015216;28;20042;-85
2022/07/06 11:03:36;;;;;;;1.45;0.20;;;23.40;95.00;;;;;;4997556;28;20112;-86
2022/07/06 11:06:09;;;;;;;1.45;0.10;;;23.20;96.00;;;;;;4997602;28;20046;-85
2022/07/06 11:08:48;;;;;;;1.77;0.40;;;23.40;94.80;;;;;;4988252;28;20097;-87
2022/07/06 11:11:24;;;;;;;1.15;0.10;;;23.50;94.30;;;;;;4995606;28;20074;-85
2022/07/06 11:13:54;;;;;;;3.55;0.55;;;23.20;94.20;;;;;;4977926;28;20054;-86
2022/07/06 11:16:23;;;;;;;0.80;0.10;;;23.10;94.30;;;;;;4980053;28;20060;-86
2022/07/06 11:19:12;;;;;;;1.50;0.22;;;23.30;94.00;;;;;;4981001;28;20078;-87
2022/07/06 11:21:52;;;;;;;2.33;0.10;;;23.70;93.50;;;;;;4995685;28;20380;-88
2022/07/06 11:24:21;;;;;;;1.73;0.10;;;23.90;91.60;;;;;;4998308;28;20486;-87
2022/07/06 11:26:49;;;;;;;0.82;0.20;;;23.80;92.70;;;;;;4981420;28;20101;-88
2022/07/06 11:29:18;;;;;;;0.52;0.10;;;23.70;93.60;;;;;;4977803;28;20154;-87
2022/07/06 11:31:45;;;;;;;2.80;0.13;;;23.90;94.10;;;;;;4995227;28;20074;-87
2022/07/06 11:34:14;;;;;;;1.08;0.13;;;23.90;93.50;;;;;;4995189;28;20060;-87
2022/07/06 11:36:40;;;;;;;0.22;0.10;;;23.90;93.10;;;;;;4994768;28;20482;-87
2022/07/06 11:39:06;;;;;;;1.48;0.20;;;24.10;93.60;;;;;;4994545;28;20046;-87
2022/07/06 11:41:33;;;;;;;1.05;0.20;;;24.40;93.50;;;;;;4994802;28;20053;-87
2022/07/06 11:43:58;;;;;;;0.47;0.10;;;24.60;92.40;;;;;;4994607;28;20053;-87
2022/07/06 11:46:34;;;;;;;1.65;0.10;;;24.90;92.60;;;;;;4994430;28;20406;-87
2022/07/06 11:49:00;;;;;;;;;;;25.10;92.60;;;;;;4977881;28;20141;-86
2022/07/06 11:51:28;;;;;;;0.20;0.10;;;25.20;91.20;;;;;;4977493;28;20386;-87
2022/07/06 11:53:59;;;;;;;0.38;0.00;;;25.50;91.40;;;;;;4977325;28;20553;-87
2022/07/06 11:56:27;;;;;;;0.82;0.20;;;25.50;90.40;;;;;;4977090;28;20042;-87
2022/07/06 11:58:56;;;;;;;0.15;0.08;;;25.20;89.90;;;;;;4994346;28;20104;-86
2022/07/06 12:01:24;;;;;;;0.70;0.20;;;25.10;89.90;;;;;;4994483;28;20177;-87
2022/07/06 12:03:51;;;;;;;1.00;0.08;;;25.30;91.30;;;;;;4976896;28;20050;-88
2022/07/06 12:06:22;;;;;;;0.32;0.00;;;25.50;90.80;;;;;;4976557;28;20544;-86
2022/07/06 12:08:54;;;;;;;3.45;0.25;;;25.20;90.50;;;;;;4976495;28;20054;-86
2022/07/06 12:11:25;;;;;;;0.60;0.15;;;25.50;85.90;;;;;;4976302;28;20133;-86
2022/07/06 12:13:54;;;;;;;1.75;0.10;;;25.00;87.00;;;;;;4994130;28;20637;-86
2022/07/06 12:16:22;;;;;;;1.02;0.10;;;24.50;89.00;;;;;;4994187;28;20448;-86
2022/07/06 12:18:49;;;;;;;0.80;0.17;;;24.40;90.50;;;;;;4976732;28;20046;-86
2022/07/06 12:21:18;;;;;;;0.63;0.13;;;24.50;89.00;;;;;;4976896;28;20069;-87
2022/07/06 12:23:49;;;;;;;1.83;0.10;;;24.60;85.80;;;;;;4993809;28;20047;-86
2022/07/06 12:26:18;;;;;;;0.40;0.20;;;24.70;90.10;;;;;;4993877;28;20125;-86
2022/07/06 12:28:44;;;;;;;1.17;0.10;;;24.60;89.30;;;;;;5008572;28;20490;-86
2022/07/06 12:31:11;;;;;;;0.63;0.15;;;24.40;89.90;;;;;;4976253;28;20535;-86
2022/07/06 12:33:37;;;;;;;2.22;0.20;;;24.60;87.20;;;;;;4976309;28;20144;-86
2022/07/06 12:36:14;;;;;;;0.43;0.10;;;24.20;90.10;;;;;;4993685;28;20074;-88
2022/07/06 12:38:48;;;;;;;0.43;0.10;;;24.10;90.20;;;;;;4993553;28;20042;-85
2022/07/06 12:41:33;;;;;;;1.48;0.15;;;24.10;90.50;;;;;;4993644;28;20038;-85
2022/07/06 12:44:30;;;;;;;;;;;24.40;89.90;;;;;;5009091;28;20078;-94
2022/07/06 12:55:45;;;;;;;0.75;0.13;;;23.80;90.10;;;;;;5032153;28;20049;-90
2022/07/06 13:03:55;;;;;;;1.58;0.22;;;23.00;90.90;;;;;;5011881;28;20088;-90
2022/07/06 13:06:34;;;;;;;0.60;0.10;;;22.80;91.70;;;;;;5014708;28;20877;-88
2022/07/06 13:09:02;;;;;;;0.30;0.10;;;22.70;91.70;;;;;;5014301;28;20061;-88
2022/07/06 13:11:33;;;;;;;3.42;0.40;;;22.60;91.40;;;;;;5030854;28;20068;-93
2022/07/06 13:13:59;;;;;;;0.30;0.10;;;22.60;92.10;;;;;;5014073;28;20077;-87
2022/07/06 13:16:30;;;;;;;1.17;0.13;;;22.60;92.70;;;;;;5014157;28;20037;-87
2022/07/06 13:18:56;;;;;;;0.20;0.00;;;22.70;93.30;;;;;;5030211;28;20042;-92
2022/07/06 13:24:35;;;;;;;1.30;0.10;;;22.90;91.50;;;;;;5049834;22;20102;-90
2022/07/06 13:27:01;;;;;;;1.58;0.20;;;23.00;91.20;;;;;;5034608;28;20052;-88
2022/07/06 13:29:27;;;;;;;0.15;0.10;;;22.70;91.90;;;;;;5034857;28;20071;-90
2022/07/06 13:31:53;;;;;;;0.65;0.15;;;22.60;92.50;;;;;;5052612;28;20498;-91
2022/07/06 13:34:19;;;;;;;0.50;0.20;;;22.60;92.50;;;;;;5034362;28;20110;-91
2022/07/06 13:36:44;;;;;;;1.52;0.25;;;22.60;92.30;;;;;;5034906;28;20048;-92
2022/07/06 13:39:10;;;;;;;1.95;0.15;;;22.50;91.80;;;;;;5034450;28;20056;-92
2022/07/06 13:41:36;;;;;;;0.40;0.08;;;22.40;91.10;;;;;;5037436;28;20080;-90
2022/07/06 13:44:02;;;;;;;1.23;0.20;;;22.30;91.80;;;;;;5038179;28;20052;-87
2022/07/06 13:46:29;;;;;;;0.55;0.03;;;22.20;91.90;;;;;;5056152;28;20554;-88
2022/07/06 14:13:40;;;;;;;1.98;0.20;;;21.10;93.50;;;;;;3156906;24;20352;-90
2022/07/06 14:16:06;;;;;;;0.43;0.10;;;21.00;92.80;;;;;;4911594;23;20050;-87
2022/07/06 14:18:53;;;;;;;0.28;0.17;;;20.90;93.00;;;;;;4864752;24;20061;-89
2022/07/06 14:21:19;;;;;;;0.13;0.10;;;20.80;93.50;;;;;;4881631;29;20056;-88
2022/07/06 14:23:44;;;;;;;0.22;0.10;;;20.70;93.70;;;;;;4867872;29;20037;-89
2022/07/06 14:26:10;;;;;;;1.02;0.20;;;20.70;93.60;;;;;;4846956;29;20061;-90
2022/07/06 14:28:36;;;;;;;0.70;0.15;;;20.50;94.00;;;;;;4848256;29;20037;-88
2022/07/06 14:31:02;;;;;;;0.20;0.10;;;20.40;94.60;;;;;;4865106;29;20056;-88
2022/07/06 14:33:31;;;;;;;1.98;0.30;;;20.40;94.10;;;;;;4878957;29;20464;-90
2022/07/06 14:36:00;;;;;;;0.88;0.10;;;20.30;94.30;;;;;;4864995;29;20144;-92
2022/07/06 14:38:27;;;;;;;0.77;0.20;;;20.30;94.80;;;;;;4863441;29;20049;-89
2022/07/06 14:40:53;;;;;;;1.08;0.20;;;20.30;94.90;;;;;;4847579;29;20140;-89
2022/07/06 14:43:19;;;;;;;0.20;0.20;;;20.20;95.70;;;;;;4849444;29;20133;-92
2022/07/06 14:45:45;;;;;;;2.60;0.55;;;20.20;96.00;;;;;;4856741;29;20477;-89
2022/07/06 14:48:12;;;;;;;1.75;0.20;;;19.90;95.40;;;;;;4869228;29;20649;-86
2022/07/06 14:50:38;;;;;;;0.65;0.20;;;20.20;95.80;;;;;;4896822;29;20093;-85
2022/07/06 14:53:04;;;;;;;0.57;0.20;;;19.80;96.30;;;;;;4868666;29;20135;-87
2022/07/06 14:55:30;;;;;;;0.40;0.15;;;19.80;96.60;;;;;;4869194;29;20376;-87
2022/07/06 14:57:56;;;;;;;0.55;0.20;;;19.80;97.00;;;;;;4897671;29;20081;-86
2022/07/06 15:00:22;;;;;;;0.93;0.30;;;19.80;97.00;;;;;;4894346;29;20086;-88
2022/07/06 15:02:47;;;;;;;1.10;0.22;;;19.70;98.60;;;;;;4882705;29;20099;-87
2022/07/06 15:05:13;;;;;;;1.10;0.20;;;19.60;99.40;;;;;;4854271;29;20045;-87
2022/07/06 15:07:39;;;;;;;1.30;0.20;;;19.50;99.90;;;;;;4862736;29;20050;-88
2022/07/06 15:10:05;;;;;;;1.58;0.32;;;19.40;99.90;;;;;;4862507;29;20073;-88
2022/07/06 15:12:31;;;;;;;0.47;0.28;;;19.20;99.90;;;;;;4850309;29;20056;-86
2022/07/06 15:14:57;;;;;;;1.08;0.30;;;19.10;99.90;;;;;;4863208;29;20049;-87
2022/07/06 15:17:23;;;;;;;1.50;0.40;;;19.00;99.90;;;;;;4845804;29;20053;-86
2022/07/06 15:19:49;;;;;;;0.73;0.20;;;18.80;99.90;;;;;;4813602;29;20508;-88
2022/07/06 15:22:26;;;;;;;2.30;0.38;;;18.70;99.90;;;;;;4841279;29;20144;-88
2022/07/06 15:24:52;;;;;;;1.58;0.30;;;18.60;99.90;;;;;;4843200;29;20057;-89
2022/07/06 15:27:18;;;;;;;0.55;0.20;;;18.50;99.90;;;;;;4839170;29;20053;-89
2022/07/06 15:32:14;;;;;;;0.88;0.30;;;18.40;99.90;;;;;;4860541;29;20061;-89
2022/07/06 15:34:40;;;;;;;1.85;0.20;;;18.20;99.90;;;;;;4862124;29;20046;-88
2022/07/06 15:37:06;;;;;;;0.57;0.20;;;18.20;99.90;;;;;;4845260;29;20176;-88
2022/07/06 15:39:32;;;;;;;0.88;0.25;;;18.20;99.90;;;;;;4861460;29;20085;-87
2022/07/06 15:41:57;;;;;;;3.13;0.40;;;18.30;99.90;;;;;;4845572;29;20048;-88
2022/07/06 15:44:23;;;;;;;1.92;0.40;;;18.30;99.90;;;;;;4861537;29;20495;-86
2022/07/06 15:46:49;;;;;;;2.55;0.40;;;18.30;99.90;;;;;;4861732;29;20049;-87
2022/07/06 15:49:17;;;;;;;2.08;0.50;;;18.30;99.90;;;;;;4861783;29;20053;-87
2022/07/06 15:51:45;;;;;;;2.22;0.50;;;18.30;99.90;;;;;;4844831;29;20086;-92
2022/07/06 15:57:49;;;;;;;1.30;0.60;;;18.10;99.90;;;;;;4853392;23;20115;-94
2022/07/06 16:00:17;;;;;;;1.42;0.50;;;18.00;99.90;;;;;;4774283;30;20051;-91
2022/07/06 16:03:03;;;;;;;2.80;0.70;;;17.80;99.90;;;;;;4767715;30;20138;-92
2022/07/06 16:05:34;;;;;;;2.10;1.02;;;17.70;99.90;;;;;;4761805;30;20551;-95
2022/07/06 16:08:42;;;;;;;1.67;0.60;;;17.40;99.90;;;;;;4757400;29;20201;-92
2022/07/06 16:11:28;;;;;;;2.42;0.60;;;17.50;99.90;;;;;;4743834;30;20059;-92
2022/07/06 16:13:57;;;;;;;1.55;0.50;;;17.50;99.90;;;;;;4851978;24;20053;-85
2022/07/06 16:16:25;;;;;;;3.30;0.45;;;17.20;99.90;;;;;;4866870;29;20472;-90
2022/07/06 16:19:23;;;;;;;3.10;0.68;;;17.20;99.90;;;;;;4865238;29;20279;-95
2022/07/06 16:24:23;;;;;;;0.88;0.40;;;17.10;99.90;;;;;;5120800;23;20507;-90
2022/07/06 16:26:49;;;;;;;1.17;0.40;;;17.00;99.90;;;;;;4851885;29;20078;-95
2022/07/06 16:29:16;;;;;;;2.08;0.60;;;17.00;99.90;;;;;;4865269;29;20045;-91
2022/07/06 16:31:42;;;;;;;1.83;0.60;;;17.00;99.90;;;;;;4854749;24;20076;-89
2022/07/06 16:37:34;;;;;;;2.75;0.55;;;16.90;99.90;;;;;;4756982;30;20102;-91
2022/07/06 16:40:01;;;;;;;1.00;0.55;;;16.60;99.90;;;;;;4756920;30;20059;-93
2022/07/06 16:42:26;;;;;;;1.70;0.60;;;16.80;99.90;;;;;;4754840;30;20064;-87
2022/07/06 16:44:52;;;;;;;1.15;0.60;;;16.70;99.90;;;;;;4754804;30;20059;-91
2022/07/06 16:47:18;;;;;;;2.83;0.85;;;16.70;99.90;;;;;;4770353;30;20472;-90
2022/07/06 16:49:44;;;;;;;1.95;0.88;;;16.60;99.90;;;;;;4769664;30;20190;-89
2022/07/06 16:52:10;;;;;;;0.77;0.50;;;16.60;99.90;;;;;;4753776;30;20060;-93
2022/07/06 16:54:36;;;;;;;2.50;0.45;;;16.20;99.90;;;;;;4767958;30;20079;-87
2022/07/06 16:57:04;;;;;;;1.95;0.50;;;16.60;99.90;;;;;;4783872;30;20058;-87
2022/07/06 16:59:30;;;;;;;1.15;0.50;;;16.60;99.90;;;;;;4838432;24;20061;-85
2022/07/06 17:01:56;;;;;;;2.80;0.90;;;16.50;99.90;;;;;;4858581;29;20101;-90
2022/07/06 17:04:28;;;;;;;1.90;0.50;;;16.50;99.90;;;;;;4860282;29;20045;-91
2022/07/06 17:06:54;;;;;;;2.10;0.80;;;16.50;99.90;;;;;;4832068;24;20060;-85
2022/07/06 17:09:19;;;;;;;2.17;0.70;;;16.70;99.90;;;;;;4845723;29;20124;-91